Flight Track Log - Related Links

Times and Time Zones

All times are in EDT time to prevent confusion due to time zone crossing. See the EJA122 flight status page for this flight to view local times or setup timezone preferences in your user account.

Time Position Orientation Groundspeed Altitude Reporting Facility
EDT Latitude Longitude Course Direction KTS MPH feet Rate Location/Type
Sun 05:58:29 PM 34.9192 -76.7700 304° West 284 327 10,400  Level Washington Center
Sun 05:59:29 PM 34.9683 -76.8569 305° West 324 373 13,000 1,800 Climbing Washington Center
Sun 06:00:29 PM 35.0236 -76.9567 304° West 340 391 14,000 500 Climbing Washington Center
Sun 06:01:00 PM 35.1634 -77.2000 306° West  Level FlightAware Approximate
Sun 06:01:29 PM 35.0831 -77.0617 305° West 356 410 14,000  Level Washington Center
Sun 06:02:00 PM 35.2147 -77.2897 304° West  Level FlightAware Approximate
Sun 06:02:29 PM 35.1381 -77.1567 305° West 379 436 14,000  Level Washington Center
Sun 06:03:00 PM 35.2650 -77.3803 304° West  Level FlightAware Approximate
Sun 06:03:29 PM 35.2014 -77.2644 306° West 385 443 14,000  Level Washington Center
Sun 06:04:29 PM 35.2622 -77.3728 305° West 385 443 14,000  Level Washington Center
Sun 06:05:29 PM 35.3256 -77.4758 307° West 385 443 14,000  Level Washington Center
Sun 06:06:29 PM 35.3819 -77.5867 302° West 385 443 14,000  Level Washington Center
Sun 06:07:29 PM 35.4303 -77.7000 298° West 379 436 14,000  Level Washington Center
Sun 06:08:29 PM 35.4781 -77.8161 297° West 379 436 14,000  Level Washington Center
Sun 06:09:29 PM 35.5261 -77.9322 297° West 379 436 14,000  Level Washington Center
Sun 06:10:29 PM 35.5739 -78.0461 297° West 379 436 14,000  Level Washington Center
Sun 06:11:29 PM 35.6214 -78.1625 297° West 374 430 14,000  Level Washington Center
Sun 06:12:29 PM 35.6689 -78.2792 297° West 374 430 14,000  Level Washington Center
Sun 06:13:29 PM 35.7164 -78.3958 297° West 374 430 14,000  Level Washington Center
Sun 06:14:29 PM 35.7636 -78.5103 297° West 379 436 14,000  Level Washington Center
Sun 06:15:29 PM 35.8128 -78.6297 297° West 379 436 14,000  Level Washington Center
Sun 06:16:29 PM 35.8578 -78.7469 295° West 379 436 14,000  Level Washington Center
Sun 06:17:29 PM 35.8792 -78.8861 281° West 380 437 14,000 -250 Level Washington Center
Sun 06:18:29 PM 35.8881 -79.0122 275° West 374 430 13,500 -550 Descending Washington Center
Sun 06:19:29 PM 35.8953 -79.1228 275° West 367 422 12,900 -300 Descending Washington Center
Sun 06:20:29 PM 35.9058 -79.2592 275° West 367 422 12,900  Level Washington Center
Sun 06:22:00 PM 35.9161 -79.4151 292° West  Level FlightAware Approximate
Sun 06:29:00 PM 36.0830 -80.1158 292° West  Level FlightAware Approximate
Sun 06:30:00 PM 36.1260 -80.2057 310° West  Level FlightAware Approximate
Sun 06:31:00 PM 36.1333 -80.2167 310° West  Level FlightAware Approximate
Sun 06:32:00 PM 36.1337 -80.2220 310° West  Level Estimated
Sun 06:33:00 PM 36.1333 -80.2167 310° West  Level FlightAware Approximate
Sun 06:34:00 PM 36.1337 -80.2220 310° West  Level Estimated
Sun 06:35:00 PM 36.1333 -80.2167 310° West  Level FlightAware Approximate
Sun 06:36:00 PM 36.1337 -80.2220 310° West  Level Estimated

Login

Don't have an account? Register now (free) for customized features, flight alerts, and more!